sensor_id;sensor_type;location;lat;lon;timestamp;P1;durP1;ratioP1;P2;durP2;ratioP2
505;SDS011;551;48.524;9.056;2023-09-18T00:00:53;6.37;;;4.40;;
505;SDS011;551;48.524;9.056;2023-09-18T00:03:19;4.20;;;3.43;;
505;SDS011;551;48.524;9.056;2023-09-18T00:05:48;4.63;;;4.23;;
505;SDS011;551;48.524;9.056;2023-09-18T00:08:15;5.20;;;4.33;;
505;SDS011;551;48.524;9.056;2023-09-18T00:10:41;4.83;;;3.77;;
505;SDS011;551;48.524;9.056;2023-09-18T00:13:07;5.40;;;4.43;;
505;SDS011;551;48.524;9.056;2023-09-18T00:15:33;6.20;;;3.10;;
505;SDS011;551;48.524;9.056;2023-09-18T00:17:59;5.13;;;3.97;;
505;SDS011;551;48.524;9.056;2023-09-18T00:20:24;8.10;;;4.10;;
505;SDS011;551;48.524;9.056;2023-09-18T00:22:55;4.77;;;3.80;;
505;SDS011;551;48.524;9.056;2023-09-18T00:25:21;7.50;;;3.47;;
505;SDS011;551;48.524;9.056;2023-09-18T00:27:47;4.40;;;3.90;;
505;SDS011;551;48.524;9.056;2023-09-18T00:30:13;3.87;;;3.37;;
505;SDS011;551;48.524;9.056;2023-09-18T00:32:38;4.80;;;3.60;;
505;SDS011;551;48.524;9.056;2023-09-18T00:35:04;4.50;;;4.10;;
505;SDS011;551;48.524;9.056;2023-09-18T00:37:29;4.87;;;3.90;;
505;SDS011;551;48.524;9.056;2023-09-18T00:39:55;8.83;;;4.30;;
505;SDS011;551;48.524;9.056;2023-09-18T00:42:20;6.23;;;4.00;;
505;SDS011;551;48.524;9.056;2023-09-18T00:44:47;7.27;;;4.00;;
505;SDS011;551;48.524;9.056;2023-09-18T00:47:13;4.53;;;3.87;;
505;SDS011;551;48.524;9.056;2023-09-18T00:49:40;6.50;;;4.10;;
505;SDS011;551;48.524;9.056;2023-09-18T00:52:08;6.13;;;4.43;;
505;SDS011;551;48.524;9.056;2023-09-18T00:54:35;6.50;;;4.20;;
505;SDS011;551;48.524;9.056;2023-09-18T00:57:03;8.93;;;5.20;;
505;SDS011;551;48.524;9.056;2023-09-18T00:59:29;3.80;;;3.50;;
505;SDS011;551;48.524;9.056;2023-09-18T01:01:56;7.13;;;3.93;;
505;SDS011;551;48.524;9.056;2023-09-18T01:04:21;4.30;;;3.90;;
505;SDS011;551;48.524;9.056;2023-09-18T01:06:50;4.40;;;3.80;;
505;SDS011;551;48.524;9.056;2023-09-18T01:09:18;5.80;;;3.43;;
505;SDS011;551;48.524;9.056;2023-09-18T01:11:53;7.57;;;4.13;;
505;SDS011;551;48.524;9.056;2023-09-18T01:14:30;5.80;;;3.87;;
505;SDS011;551;48.524;9.056;2023-09-18T01:16:59;5.30;;;3.73;;
505;SDS011;551;48.524;9.056;2023-09-18T01:22:04;11.70;;;4.03;;
505;SDS011;551;48.524;9.056;2023-09-18T01:24:32;4.40;;;3.97;;
505;SDS011;551;48.524;9.056;2023-09-18T01:26:58;7.83;;;3.83;;
505;SDS011;551;48.524;9.056;2023-09-18T01:29:23;4.43;;;3.70;;
505;SDS011;551;48.524;9.056;2023-09-18T01:31:49;5.47;;;3.97;;
505;SDS011;551;48.524;9.056;2023-09-18T01:34:16;8.10;;;4.10;;
505;SDS011;551;48.524;9.056;2023-09-18T01:36:50;4.07;;;3.77;;
505;SDS011;551;48.524;9.056;2023-09-18T01:39:16;10.70;;;4.63;;
505;SDS011;551;48.524;9.056;2023-09-18T01:41:43;8.80;;;4.70;;
505;SDS011;551;48.524;9.056;2023-09-18T01:44:08;6.43;;;4.33;;
505;SDS011;551;48.524;9.056;2023-09-18T01:46:34;10.77;;;4.43;;
505;SDS011;551;48.524;9.056;2023-09-18T01:49:03;11.20;;;4.40;;
505;SDS011;551;48.524;9.056;2023-09-18T01:51:29;6.60;;;4.47;;
505;SDS011;551;48.524;9.056;2023-09-18T01:53:55;9.33;;;4.60;;
505;SDS011;551;48.524;9.056;2023-09-18T01:56:21;9.47;;;4.20;;
505;SDS011;551;48.524;9.056;2023-09-18T01:58:48;8.60;;;4.63;;
505;SDS011;551;48.524;9.056;2023-09-18T02:01:14;6.03;;;4.47;;
505;SDS011;551;48.524;9.056;2023-09-18T02:03:39;6.83;;;4.97;;
505;SDS011;551;48.524;9.056;2023-09-18T02:06:07;6.87;;;4.13;;
505;SDS011;551;48.524;9.056;2023-09-18T02:08:33;7.93;;;4.97;;
505;SDS011;551;48.524;9.056;2023-09-18T02:10:59;7.83;;;5.50;;
505;SDS011;551;48.524;9.056;2023-09-18T02:13:25;8.60;;;5.17;;
505;SDS011;551;48.524;9.056;2023-09-18T02:15:50;6.13;;;4.40;;
505;SDS011;551;48.524;9.056;2023-09-18T02:18:16;6.90;;;5.10;;
505;SDS011;551;48.524;9.056;2023-09-18T02:20:41;7.50;;;4.73;;
505;SDS011;551;48.524;9.056;2023-09-18T02:23:09;5.67;;;4.70;;
505;SDS011;551;48.524;9.056;2023-09-18T02:25:34;6.70;;;5.47;;
505;SDS011;551;48.524;9.056;2023-09-18T02:28:00;5.70;;;5.13;;
505;SDS011;551;48.524;9.056;2023-09-18T02:30:25;9.37;;;4.50;;
505;SDS011;551;48.524;9.056;2023-09-18T02:32:51;5.20;;;4.40;;
505;SDS011;551;48.524;9.056;2023-09-18T02:35:16;6.73;;;5.20;;
505;SDS011;551;48.524;9.056;2023-09-18T02:37:42;9.53;;;4.73;;
505;SDS011;551;48.524;9.056;2023-09-18T02:40:08;7.83;;;4.30;;
505;SDS011;551;48.524;9.056;2023-09-18T02:42:34;7.80;;;4.50;;
505;SDS011;551;48.524;9.056;2023-09-18T02:44:59;9.70;;;5.17;;
505;SDS011;551;48.524;9.056;2023-09-18T02:47:25;9.00;;;5.10;;
505;SDS011;551;48.524;9.056;2023-09-18T02:49:50;5.17;;;4.67;;
505;SDS011;551;48.524;9.056;2023-09-18T02:52:16;5.73;;;4.57;;
505;SDS011;551;48.524;9.056;2023-09-18T02:54:41;5.00;;;4.50;;
505;SDS011;551;48.524;9.056;2023-09-18T02:57:07;7.97;;;4.40;;
505;SDS011;551;48.524;9.056;2023-09-18T02:59:32;7.27;;;4.40;;
505;SDS011;551;48.524;9.056;2023-09-18T03:01:58;5.07;;;4.57;;
505;SDS011;551;48.524;9.056;2023-09-18T03:04:24;6.87;;;4.80;;
505;SDS011;551;48.524;9.056;2023-09-18T03:06:49;6.57;;;4.10;;
505;SDS011;551;48.524;9.056;2023-09-18T03:09:15;5.43;;;4.20;;
505;SDS011;551;48.524;9.056;2023-09-18T03:11:41;7.80;;;4.80;;
505;SDS011;551;48.524;9.056;2023-09-18T03:14:08;7.43;;;4.70;;
505;SDS011;551;48.524;9.056;2023-09-18T03:16:34;6.80;;;4.40;;
505;SDS011;551;48.524;9.056;2023-09-18T03:18:59;10.27;;;6.43;;
505;SDS011;551;48.524;9.056;2023-09-18T03:21:25;5.40;;;4.63;;
505;SDS011;551;48.524;9.056;2023-09-18T03:23:50;6.53;;;4.87;;
505;SDS011;551;48.524;9.056;2023-09-18T03:26:16;7.63;;;5.20;;
505;SDS011;551;48.524;9.056;2023-09-18T03:28:41;6.80;;;5.40;;
505;SDS011;551;48.524;9.056;2023-09-18T03:31:07;6.90;;;4.87;;
505;SDS011;551;48.524;9.056;2023-09-18T03:33:32;6.00;;;4.83;;
505;SDS011;551;48.524;9.056;2023-09-18T03:35:58;7.60;;;4.87;;
505;SDS011;551;48.524;9.056;2023-09-18T03:38:23;9.20;;;4.63;;
505;SDS011;551;48.524;9.056;2023-09-18T03:40:50;5.57;;;4.10;;
505;SDS011;551;48.524;9.056;2023-09-18T03:43:15;5.97;;;4.03;;
505;SDS011;551;48.524;9.056;2023-09-18T03:45:41;9.17;;;4.97;;
505;SDS011;551;48.524;9.056;2023-09-18T03:48:06;5.40;;;3.93;;
505;SDS011;551;48.524;9.056;2023-09-18T03:50:32;7.53;;;4.23;;
505;SDS011;551;48.524;9.056;2023-09-18T03:52:57;7.53;;;4.63;;
505;SDS011;551;48.524;9.056;2023-09-18T03:55:23;9.90;;;4.80;;
505;SDS011;551;48.524;9.056;2023-09-18T03:57:49;6.00;;;4.60;;
505;SDS011;551;48.524;9.056;2023-09-18T04:00:14;4.57;;;3.93;;
505;SDS011;551;48.524;9.056;2023-09-18T04:02:41;4.40;;;3.53;;
505;SDS011;551;48.524;9.056;2023-09-18T04:05:06;5.30;;;4.27;;
505;SDS011;551;48.524;9.056;2023-09-18T04:07:32;6.23;;;4.30;;
505;SDS011;551;48.524;9.056;2023-09-18T04:09:57;8.37;;;4.73;;
505;SDS011;551;48.524;9.056;2023-09-18T04:12:23;5.43;;;3.93;;
505;SDS011;551;48.524;9.056;2023-09-18T04:14:49;4.17;;;3.67;;
505;SDS011;551;48.524;9.056;2023-09-18T04:17:14;7.83;;;4.93;;
505;SDS011;551;48.524;9.056;2023-09-18T04:19:40;6.33;;;3.77;;
505;SDS011;551;48.524;9.056;2023-09-18T04:22:06;8.30;;;4.33;;
505;SDS011;551;48.524;9.056;2023-09-18T04:24:31;6.57;;;4.10;;
505;SDS011;551;48.524;9.056;2023-09-18T04:26:57;7.83;;;4.13;;
505;SDS011;551;48.524;9.056;2023-09-18T04:29:22;5.43;;;3.93;;
505;SDS011;551;48.524;9.056;2023-09-18T04:31:48;7.33;;;3.77;;
505;SDS011;551;48.524;9.056;2023-09-18T04:34:13;5.73;;;4.93;;
505;SDS011;551;48.524;9.056;2023-09-18T04:36:39;9.97;;;4.53;;
505;SDS011;551;48.524;9.056;2023-09-18T04:39:05;7.37;;;4.70;;
505;SDS011;551;48.524;9.056;2023-09-18T04:41:31;8.90;;;4.77;;
505;SDS011;551;48.524;9.056;2023-09-18T04:43:57;8.50;;;4.30;;
505;SDS011;551;48.524;9.056;2023-09-18T04:46:23;5.73;;;4.30;;
505;SDS011;551;48.524;9.056;2023-09-18T04:48:49;6.47;;;4.30;;
505;SDS011;551;48.524;9.056;2023-09-18T04:51:15;8.23;;;4.13;;
505;SDS011;551;48.524;9.056;2023-09-18T04:53:41;5.13;;;4.20;;
505;SDS011;551;48.524;9.056;2023-09-18T04:56:07;7.00;;;5.53;;
505;SDS011;551;48.524;9.056;2023-09-18T04:58:35;7.97;;;4.57;;
505;SDS011;551;48.524;9.056;2023-09-18T05:01:02;6.00;;;5.17;;
505;SDS011;551;48.524;9.056;2023-09-18T05:03:29;5.40;;;4.87;;
505;SDS011;551;48.524;9.056;2023-09-18T05:05:55;8.80;;;4.50;;
505;SDS011;551;48.524;9.056;2023-09-18T05:08:20;7.50;;;4.80;;
505;SDS011;551;48.524;9.056;2023-09-18T05:10:47;8.87;;;5.43;;
505;SDS011;551;48.524;9.056;2023-09-18T05:13:13;9.23;;;5.60;;
505;SDS011;551;48.524;9.056;2023-09-18T05:15:38;7.70;;;4.90;;
505;SDS011;551;48.524;9.056;2023-09-18T05:18:04;5.10;;;4.40;;
505;SDS011;551;48.524;9.056;2023-09-18T05:20:30;5.00;;;3.83;;
505;SDS011;551;48.524;9.056;2023-09-18T05:22:56;11.00;;;5.30;;
505;SDS011;551;48.524;9.056;2023-09-18T05:25:24;8.13;;;4.60;;
505;SDS011;551;48.524;9.056;2023-09-18T05:27:53;9.30;;;5.60;;
505;SDS011;551;48.524;9.056;2023-09-18T05:30:26;9.80;;;5.60;;
505;SDS011;551;48.524;9.056;2023-09-18T05:32:53;5.50;;;4.37;;
505;SDS011;551;48.524;9.056;2023-09-18T05:35:20;9.87;;;5.53;;
505;SDS011;551;48.524;9.056;2023-09-18T05:37:46;7.83;;;5.77;;
505;SDS011;551;48.524;9.056;2023-09-18T05:40:12;10.63;;;5.60;;
505;SDS011;551;48.524;9.056;2023-09-18T05:42:38;7.57;;;4.63;;
505;SDS011;551;48.524;9.056;2023-09-18T05:45:08;9.70;;;5.63;;
505;SDS011;551;48.524;9.056;2023-09-18T05:47:34;13.80;;;4.93;;
505;SDS011;551;48.524;9.056;2023-09-18T05:50:04;10.33;;;4.60;;
505;SDS011;551;48.524;9.056;2023-09-18T05:52:33;8.97;;;5.07;;
505;SDS011;551;48.524;9.056;2023-09-18T05:55:00;7.23;;;4.70;;
505;SDS011;551;48.524;9.056;2023-09-18T05:57:26;8.13;;;4.80;;
505;SDS011;551;48.524;9.056;2023-09-18T05:59:55;6.50;;;4.60;;
505;SDS011;551;48.524;9.056;2023-09-18T06:02:21;14.70;;;5.67;;
505;SDS011;551;48.524;9.056;2023-09-18T06:04:47;9.07;;;4.80;;
505;SDS011;551;48.524;9.056;2023-09-18T06:07:13;8.73;;;5.20;;
505;SDS011;551;48.524;9.056;2023-09-18T06:09:39;8.10;;;5.10;;
505;SDS011;551;48.524;9.056;2023-09-18T06:12:04;16.53;;;6.63;;
505;SDS011;551;48.524;9.056;2023-09-18T06:14:30;15.27;;;5.97;;
505;SDS011;551;48.524;9.056;2023-09-18T06:16:59;8.90;;;5.10;;
505;SDS011;551;48.524;9.056;2023-09-18T06:19:24;8.97;;;4.67;;
505;SDS011;551;48.524;9.056;2023-09-18T06:21:50;7.70;;;4.80;;
505;SDS011;551;48.524;9.056;2023-09-18T06:24:15;10.13;;;4.77;;
505;SDS011;551;48.524;9.056;2023-09-18T06:26:41;6.53;;;4.23;;
505;SDS011;551;48.524;9.056;2023-09-18T06:29:06;9.90;;;4.80;;
505;SDS011;551;48.524;9.056;2023-09-18T06:31:34;11.10;;;5.10;;
505;SDS011;551;48.524;9.056;2023-09-18T06:34:00;10.20;;;4.57;;
505;SDS011;551;48.524;9.056;2023-09-18T06:36:25;13.03;;;4.67;;
505;SDS011;551;48.524;9.056;2023-09-18T06:38:51;9.33;;;5.00;;
505;SDS011;551;48.524;9.056;2023-09-18T06:41:16;5.40;;;4.73;;
505;SDS011;551;48.524;9.056;2023-09-18T06:43:42;9.83;;;4.73;;
505;SDS011;551;48.524;9.056;2023-09-18T06:46:07;10.20;;;4.33;;
505;SDS011;551;48.524;9.056;2023-09-18T06:48:34;7.10;;;4.10;;
505;SDS011;551;48.524;9.056;2023-09-18T06:51:00;7.87;;;3.87;;
505;SDS011;551;48.524;9.056;2023-09-18T06:53:26;11.33;;;3.83;;
505;SDS011;551;48.524;9.056;2023-09-18T06:55:52;6.60;;;4.43;;
505;SDS011;551;48.524;9.056;2023-09-18T06:58:18;8.63;;;4.50;;
505;SDS011;551;48.524;9.056;2023-09-18T07:00:44;9.13;;;4.50;;
505;SDS011;551;48.524;9.056;2023-09-18T07:03:09;8.63;;;4.60;;
505;SDS011;551;48.524;9.056;2023-09-18T07:05:36;10.10;;;3.70;;
505;SDS011;551;48.524;9.056;2023-09-18T07:08:02;11.27;;;4.10;;
505;SDS011;551;48.524;9.056;2023-09-18T07:10:30;14.00;;;4.30;;
505;SDS011;551;48.524;9.056;2023-09-18T07:12:56;10.17;;;3.30;;
505;SDS011;551;48.524;9.056;2023-09-18T07:15:21;12.33;;;3.60;;
505;SDS011;551;48.524;9.056;2023-09-18T07:17:47;10.70;;;3.33;;
505;SDS011;551;48.524;9.056;2023-09-18T07:20:13;6.67;;;3.57;;
505;SDS011;551;48.524;9.056;2023-09-18T07:22:39;6.67;;;2.80;;
505;SDS011;551;48.524;9.056;2023-09-18T07:25:06;6.30;;;3.30;;
505;SDS011;551;48.524;9.056;2023-09-18T07:27:32;4.47;;;2.70;;
505;SDS011;551;48.524;9.056;2023-09-18T07:29:58;7.50;;;3.27;;
505;SDS011;551;48.524;9.056;2023-09-18T07:32:24;9.90;;;3.33;;
505;SDS011;551;48.524;9.056;2023-09-18T07:34:51;10.10;;;3.17;;
505;SDS011;551;48.524;9.056;2023-09-18T07:37:17;14.10;;;3.93;;
505;SDS011;551;48.524;9.056;2023-09-18T07:39:45;9.80;;;2.87;;
505;SDS011;551;48.524;9.056;2023-09-18T07:42:11;16.30;;;3.90;;
505;SDS011;551;48.524;9.056;2023-09-18T07:44:37;8.17;;;3.10;;
505;SDS011;551;48.524;9.056;2023-09-18T07:47:02;7.20;;;2.93;;
505;SDS011;551;48.524;9.056;2023-09-18T07:49:28;4.17;;;3.30;;
505;SDS011;551;48.524;9.056;2023-09-18T07:51:54;4.80;;;4.00;;
505;SDS011;551;48.524;9.056;2023-09-18T07:54:19;6.20;;;2.90;;
505;SDS011;551;48.524;9.056;2023-09-18T07:56:45;12.53;;;3.80;;
505;SDS011;551;48.524;9.056;2023-09-18T07:59:10;13.33;;;3.90;;
505;SDS011;551;48.524;9.056;2023-09-18T08:01:36;7.03;;;3.27;;
505;SDS011;551;48.524;9.056;2023-09-18T08:04:02;5.63;;;2.63;;
505;SDS011;551;48.524;9.056;2023-09-18T08:06:27;7.03;;;3.17;;
505;SDS011;551;48.524;9.056;2023-09-18T08:08:53;4.53;;;2.53;;
505;SDS011;551;48.524;9.056;2023-09-18T08:11:19;5.63;;;2.73;;
505;SDS011;551;48.524;9.056;2023-09-18T08:13:44;6.47;;;3.07;;
505;SDS011;551;48.524;9.056;2023-09-18T08:16:10;12.00;;;2.87;;
505;SDS011;551;48.524;9.056;2023-09-18T08:18:35;8.17;;;2.67;;
505;SDS011;551;48.524;9.056;2023-09-18T08:21:03;2.23;;;1.83;;
505;SDS011;551;48.524;9.056;2023-09-18T08:23:29;5.47;;;2.40;;
505;SDS011;551;48.524;9.056;2023-09-18T08:25:55;12.63;;;3.33;;
505;SDS011;551;48.524;9.056;2023-09-18T08:28:22;3.97;;;1.90;;
505;SDS011;551;48.524;9.056;2023-09-18T08:30:48;4.13;;;2.20;;
505;SDS011;551;48.524;9.056;2023-09-18T08:33:13;6.53;;;2.57;;
505;SDS011;551;48.524;9.056;2023-09-18T08:35:39;5.20;;;2.50;;
505;SDS011;551;48.524;9.056;2023-09-18T08:38:05;5.43;;;3.03;;
505;SDS011;551;48.524;9.056;2023-09-18T08:40:31;9.13;;;2.60;;
505;SDS011;551;48.524;9.056;2023-09-18T08:42:58;4.37;;;2.00;;
505;SDS011;551;48.524;9.056;2023-09-18T08:48:21;6.07;;;3.43;;
505;SDS011;551;48.524;9.056;2023-09-18T08:50:47;10.63;;;2.57;;
505;SDS011;551;48.524;9.056;2023-09-18T08:53:13;6.77;;;2.47;;
505;SDS011;551;48.524;9.056;2023-09-18T08:55:39;20.97;;;3.67;;
505;SDS011;551;48.524;9.056;2023-09-18T08:58:06;9.87;;;3.37;;
505;SDS011;551;48.524;9.056;2023-09-18T09:00:38;5.77;;;2.77;;
505;SDS011;551;48.524;9.056;2023-09-18T09:03:03;6.00;;;2.30;;
505;SDS011;551;48.524;9.056;2023-09-18T09:05:32;5.77;;;2.63;;
505;SDS011;551;48.524;9.056;2023-09-18T09:07:58;6.33;;;1.87;;
505;SDS011;551;48.524;9.056;2023-09-18T09:10:23;7.40;;;2.87;;
505;SDS011;551;48.524;9.056;2023-09-18T09:15:19;6.83;;;2.27;;
505;SDS011;551;48.524;9.056;2023-09-18T09:17:45;15.00;;;3.77;;
505;SDS011;551;48.524;9.056;2023-09-18T09:20:12;6.20;;;2.03;;
505;SDS011;551;48.524;9.056;2023-09-18T09:22:39;4.27;;;2.10;;
505;SDS011;551;48.524;9.056;2023-09-18T09:25:27;5.70;;;1.90;;
505;SDS011;551;48.524;9.056;2023-09-18T09:27:53;3.20;;;2.10;;
505;SDS011;551;48.524;9.056;2023-09-18T09:30:23;2.87;;;2.00;;
505;SDS011;551;48.524;9.056;2023-09-18T09:32:50;3.70;;;2.20;;
505;SDS011;551;48.524;9.056;2023-09-18T09:35:19;2.60;;;1.73;;
505;SDS011;551;48.524;9.056;2023-09-18T09:37:45;2.23;;;2.03;;
505;SDS011;551;48.524;9.056;2023-09-18T09:40:11;13.30;;;3.97;;
505;SDS011;551;48.524;9.056;2023-09-18T09:42:39;8.90;;;3.40;;
505;SDS011;551;48.524;9.056;2023-09-18T09:45:10;4.70;;;2.40;;
505;SDS011;551;48.524;9.056;2023-09-18T09:47:37;3.93;;;2.50;;
505;SDS011;551;48.524;9.056;2023-09-18T09:50:07;2.83;;;2.23;;
505;SDS011;551;48.524;9.056;2023-09-18T09:52:40;3.30;;;1.93;;
505;SDS011;551;48.524;9.056;2023-09-18T09:57:48;3.80;;;2.33;;
505;SDS011;551;48.524;9.056;2023-09-18T10:00:15;3.40;;;2.23;;
505;SDS011;551;48.524;9.056;2023-09-18T10:02:56;6.70;;;2.30;;
505;SDS011;551;48.524;9.056;2023-09-18T10:05:24;3.90;;;1.97;;
505;SDS011;551;48.524;9.056;2023-09-18T10:07:58;3.00;;;2.33;;
505;SDS011;551;48.524;9.056;2023-09-18T10:10:29;5.90;;;2.60;;
505;SDS011;551;48.524;9.056;2023-09-18T10:12:58;3.57;;;2.43;;
505;SDS011;551;48.524;9.056;2023-09-18T10:15:29;6.13;;;1.90;;
505;SDS011;551;48.524;9.056;2023-09-18T10:17:58;5.00;;;2.33;;
505;SDS011;551;48.524;9.056;2023-09-18T10:20:27;5.37;;;2.80;;
505;SDS011;551;48.524;9.056;2023-09-18T10:22:56;7.00;;;2.60;;
505;SDS011;551;48.524;9.056;2023-09-18T10:25:30;16.90;;;4.07;;
505;SDS011;551;48.524;9.056;2023-09-18T10:27:57;15.17;;;3.67;;
505;SDS011;551;48.524;9.056;2023-09-18T10:30:26;8.27;;;3.17;;
505;SDS011;551;48.524;9.056;2023-09-18T10:32:52;9.63;;;2.93;;
505;SDS011;551;48.524;9.056;2023-09-18T10:35:18;7.93;;;3.10;;
505;SDS011;551;48.524;9.056;2023-09-18T10:37:45;5.77;;;2.37;;
505;SDS011;551;48.524;9.056;2023-09-18T10:40:16;8.60;;;3.03;;
505;SDS011;551;48.524;9.056;2023-09-18T10:42:42;6.53;;;2.40;;
505;SDS011;551;48.524;9.056;2023-09-18T10:45:10;6.93;;;2.57;;
505;SDS011;551;48.524;9.056;2023-09-18T10:47:41;4.17;;;2.50;;
505;SDS011;551;48.524;9.056;2023-09-18T10:50:10;4.33;;;2.40;;
505;SDS011;551;48.524;9.056;2023-09-18T10:52:36;4.87;;;2.73;;
505;SDS011;551;48.524;9.056;2023-09-18T10:55:10;5.70;;;2.87;;
505;SDS011;551;48.524;9.056;2023-09-18T10:57:37;13.50;;;8.80;;
505;SDS011;551;48.524;9.056;2023-09-18T11:00:14;3.90;;;2.60;;
505;SDS011;551;48.524;9.056;2023-09-18T11:02:41;6.67;;;2.93;;
505;SDS011;551;48.524;9.056;2023-09-18T11:05:07;3.80;;;2.10;;
505;SDS011;551;48.524;9.056;2023-09-18T11:07:32;2.27;;;2.07;;
505;SDS011;551;48.524;9.056;2023-09-18T11:09:58;1.87;;;1.60;;
505;SDS011;551;48.524;9.056;2023-09-18T11:12:42;3.40;;;2.50;;
505;SDS011;551;48.524;9.056;2023-09-18T11:15:09;8.67;;;2.77;;
505;SDS011;551;48.524;9.056;2023-09-18T11:17:58;3.77;;;2.20;;
505;SDS011;551;48.524;9.056;2023-09-18T11:20:24;5.77;;;2.50;;
505;SDS011;551;48.524;9.056;2023-09-18T11:22:56;5.97;;;2.63;;
505;SDS011;551;48.524;9.056;2023-09-18T11:25:45;4.27;;;2.30;;
505;SDS011;551;48.524;9.056;2023-09-18T11:28:15;4.90;;;2.90;;
505;SDS011;551;48.524;9.056;2023-09-18T11:30:50;4.20;;;3.03;;
505;SDS011;551;48.524;9.056;2023-09-18T11:36:12;4.27;;;2.27;;
505;SDS011;551;48.524;9.056;2023-09-18T11:41:27;3.80;;;2.10;;
505;SDS011;551;48.524;9.056;2023-09-18T11:44:31;3.57;;;2.00;;
505;SDS011;551;48.524;9.056;2023-09-18T11:46:44;2.97;;;2.07;;
505;SDS011;551;48.524;9.056;2023-09-18T11:49:12;11.17;;;2.63;;
505;SDS011;551;48.524;9.056;2023-09-18T11:51:38;5.70;;;2.60;;
505;SDS011;551;48.524;9.056;2023-09-18T11:54:05;3.87;;;2.00;;
505;SDS011;551;48.524;9.056;2023-09-18T11:56:34;7.20;;;2.10;;
505;SDS011;551;48.524;9.056;2023-09-18T11:59:00;6.50;;;2.00;;
505;SDS011;551;48.524;9.056;2023-09-18T12:01:31;5.17;;;2.50;;
505;SDS011;551;48.524;9.056;2023-09-18T12:04:00;3.57;;;2.00;;
505;SDS011;551;48.524;9.056;2023-09-18T12:06:27;3.93;;;2.60;;
505;SDS011;551;48.524;9.056;2023-09-18T12:08:53;4.40;;;2.40;;
505;SDS011;551;48.524;9.056;2023-09-18T12:11:19;4.50;;;2.20;;
505;SDS011;551;48.524;9.056;2023-09-18T12:13:46;7.70;;;2.40;;
505;SDS011;551;48.524;9.056;2023-09-18T12:16:15;5.07;;;2.20;;
505;SDS011;551;48.524;9.056;2023-09-18T12:18:49;4.90;;;1.70;;
505;SDS011;551;48.524;9.056;2023-09-18T12:21:16;3.27;;;1.90;;
505;SDS011;551;48.524;9.056;2023-09-18T12:23:42;5.80;;;2.10;;
505;SDS011;551;48.524;9.056;2023-09-18T12:26:10;1.80;;;1.70;;
505;SDS011;551;48.524;9.056;2023-09-18T12:28:41;2.33;;;1.97;;
505;SDS011;551;48.524;9.056;2023-09-18T12:31:14;4.50;;;1.80;;
505;SDS011;551;48.524;9.056;2023-09-18T12:33:41;4.03;;;2.20;;
505;SDS011;551;48.524;9.056;2023-09-18T12:36:12;2.23;;;2.00;;
505;SDS011;551;48.524;9.056;2023-09-18T12:38:39;3.53;;;2.00;;
505;SDS011;551;48.524;9.056;2023-09-18T12:41:05;6.87;;;2.13;;
505;SDS011;551;48.524;9.056;2023-09-18T12:43:40;4.13;;;2.17;;
505;SDS011;551;48.524;9.056;2023-09-18T12:46:07;1.67;;;1.57;;
505;SDS011;551;48.524;9.056;2023-09-18T12:48:39;2.80;;;1.80;;
505;SDS011;551;48.524;9.056;2023-09-18T12:51:10;2.00;;;1.63;;
505;SDS011;551;48.524;9.056;2023-09-18T12:53:36;1.70;;;1.50;;
505;SDS011;551;48.524;9.056;2023-09-18T12:56:07;5.00;;;1.90;;
505;SDS011;551;48.524;9.056;2023-09-18T12:58:34;5.20;;;2.30;;
505;SDS011;551;48.524;9.056;2023-09-18T13:01:03;4.70;;;2.10;;
505;SDS011;551;48.524;9.056;2023-09-18T13:03:34;2.40;;;1.47;;
505;SDS011;551;48.524;9.056;2023-09-18T13:06:10;5.87;;;1.90;;
505;SDS011;551;48.524;9.056;2023-09-18T13:08:37;2.43;;;1.80;;
505;SDS011;551;48.524;9.056;2023-09-18T13:11:03;2.03;;;1.77;;
505;SDS011;551;48.524;9.056;2023-09-18T13:13:29;4.17;;;1.93;;
505;SDS011;551;48.524;9.056;2023-09-18T13:15:58;2.33;;;1.60;;
505;SDS011;551;48.524;9.056;2023-09-18T13:18:25;3.90;;;1.90;;
505;SDS011;551;48.524;9.056;2023-09-18T13:20:52;3.57;;;2.10;;
505;SDS011;551;48.524;9.056;2023-09-18T13:23:18;3.00;;;1.60;;
505;SDS011;551;48.524;9.056;2023-09-18T13:25:44;3.00;;;1.77;;
505;SDS011;551;48.524;9.056;2023-09-18T13:28:12;1.67;;;1.57;;
505;SDS011;551;48.524;9.056;2023-09-18T13:30:39;2.60;;;1.50;;
505;SDS011;551;48.524;9.056;2023-09-18T13:33:07;2.73;;;1.87;;
505;SDS011;551;48.524;9.056;2023-09-18T13:35:34;2.63;;;1.53;;
505;SDS011;551;48.524;9.056;2023-09-18T13:38:02;5.37;;;2.00;;
505;SDS011;551;48.524;9.056;2023-09-18T13:40:32;2.60;;;1.97;;
505;SDS011;551;48.524;9.056;2023-09-18T13:43:00;1.90;;;1.80;;
505;SDS011;551;48.524;9.056;2023-09-18T13:45:26;3.77;;;2.03;;
505;SDS011;551;48.524;9.056;2023-09-18T13:47:52;4.97;;;1.60;;
505;SDS011;551;48.524;9.056;2023-09-18T13:50:17;2.83;;;1.50;;
505;SDS011;551;48.524;9.056;2023-09-18T13:52:43;3.73;;;2.30;;
505;SDS011;551;48.524;9.056;2023-09-18T13:55:08;6.50;;;2.60;;
505;SDS011;551;48.524;9.056;2023-09-18T13:57:34;5.00;;;2.17;;
505;SDS011;551;48.524;9.056;2023-09-18T14:00:01;5.70;;;2.30;;
505;SDS011;551;48.524;9.056;2023-09-18T14:02:34;1.97;;;1.77;;
505;SDS011;551;48.524;9.056;2023-09-18T14:05:00;2.30;;;1.50;;
505;SDS011;551;48.524;9.056;2023-09-18T14:07:25;2.33;;;1.43;;
505;SDS011;551;48.524;9.056;2023-09-18T14:09:51;4.23;;;2.23;;
505;SDS011;551;48.524;9.056;2023-09-18T14:12:17;3.10;;;1.87;;
505;SDS011;551;48.524;9.056;2023-09-18T14:14:42;4.00;;;1.80;;
505;SDS011;551;48.524;9.056;2023-09-18T14:17:09;2.70;;;1.60;;
505;SDS011;551;48.524;9.056;2023-09-18T14:19:35;2.10;;;1.90;;
505;SDS011;551;48.524;9.056;2023-09-18T14:22:03;2.37;;;1.73;;
505;SDS011;551;48.524;9.056;2023-09-18T14:24:30;3.70;;;2.07;;
505;SDS011;551;48.524;9.056;2023-09-18T14:26:56;2.20;;;2.00;;
505;SDS011;551;48.524;9.056;2023-09-18T14:29:22;2.40;;;2.20;;
505;SDS011;551;48.524;9.056;2023-09-18T14:31:47;4.63;;;1.53;;
505;SDS011;551;48.524;9.056;2023-09-18T14:34:13;4.87;;;2.40;;
505;SDS011;551;48.524;9.056;2023-09-18T14:36:39;4.80;;;1.90;;
505;SDS011;551;48.524;9.056;2023-09-18T14:39:05;1.67;;;1.57;;
505;SDS011;551;48.524;9.056;2023-09-18T14:41:37;4.70;;;1.60;;
505;SDS011;551;48.524;9.056;2023-09-18T14:44:03;4.07;;;2.00;;
505;SDS011;551;48.524;9.056;2023-09-18T14:46:30;2.03;;;1.80;;
505;SDS011;551;48.524;9.056;2023-09-18T14:48:58;4.20;;;1.80;;
505;SDS011;551;48.524;9.056;2023-09-18T14:51:24;1.40;;;1.30;;
505;SDS011;551;48.524;9.056;2023-09-18T14:53:50;3.10;;;1.90;;
505;SDS011;551;48.524;9.056;2023-09-18T14:56:15;1.70;;;1.60;;
505;SDS011;551;48.524;9.056;2023-09-18T14:58:41;2.00;;;1.40;;
505;SDS011;551;48.524;9.056;2023-09-18T15:01:08;4.27;;;1.70;;
505;SDS011;551;48.524;9.056;2023-09-18T15:03:34;3.03;;;1.60;;
505;SDS011;551;48.524;9.056;2023-09-18T15:06:00;1.70;;;1.60;;
505;SDS011;551;48.524;9.056;2023-09-18T15:08:27;2.43;;;1.77;;
505;SDS011;551;48.524;9.056;2023-09-18T15:10:52;3.33;;;1.77;;
505;SDS011;551;48.524;9.056;2023-09-18T15:13:18;1.70;;;1.60;;
505;SDS011;551;48.524;9.056;2023-09-18T15:15:44;2.27;;;1.60;;
505;SDS011;551;48.524;9.056;2023-09-18T15:18:10;2.10;;;1.80;;
505;SDS011;551;48.524;9.056;2023-09-18T15:20:36;5.43;;;1.60;;
505;SDS011;551;48.524;9.056;2023-09-18T15:23:01;2.97;;;1.70;;
505;SDS011;551;48.524;9.056;2023-09-18T15:25:27;1.80;;;1.70;;
505;SDS011;551;48.524;9.056;2023-09-18T15:27:54;3.83;;;1.50;;
505;SDS011;551;48.524;9.056;2023-09-18T15:30:20;1.50;;;1.40;;
505;SDS011;551;48.524;9.056;2023-09-18T15:32:49;3.30;;;1.53;;
505;SDS011;551;48.524;9.056;2023-09-18T15:35:18;2.73;;;1.40;;
505;SDS011;551;48.524;9.056;2023-09-18T15:37:44;2.60;;;1.70;;
505;SDS011;551;48.524;9.056;2023-09-18T15:40:10;3.77;;;1.80;;
505;SDS011;551;48.524;9.056;2023-09-18T15:42:37;4.63;;;2.10;;
505;SDS011;551;48.524;9.056;2023-09-18T15:45:07;4.23;;;1.90;;
505;SDS011;551;48.524;9.056;2023-09-18T15:47:35;3.07;;;1.80;;
505;SDS011;551;48.524;9.056;2023-09-18T15:50:09;2.67;;;2.03;;
505;SDS011;551;48.524;9.056;2023-09-18T15:52:38;2.43;;;1.77;;
505;SDS011;551;48.524;9.056;2023-09-18T15:55:05;2.40;;;1.73;;
505;SDS011;551;48.524;9.056;2023-09-18T15:57:32;1.50;;;1.40;;
505;SDS011;551;48.524;9.056;2023-09-18T15:59:58;2.13;;;1.70;;